sensor_id;sensor_type;location;lat;lon;timestamp;P1;durP1;ratioP1;P2;durP2;ratioP2
20080;SDS011;10200;49.232;9.222;2022-10-31T00:01:33;9.40;;;4.13;;
20080;SDS011;10200;49.232;9.222;2022-10-31T00:04:01;9.90;;;5.03;;
20080;SDS011;10200;49.232;9.222;2022-10-31T00:06:27;7.93;;;4.10;;
20080;SDS011;10200;49.232;9.222;2022-10-31T00:08:56;11.83;;;4.50;;
20080;SDS011;10200;49.232;9.222;2022-10-31T00:11:23;7.57;;;4.60;;
20080;SDS011;10200;49.232;9.222;2022-10-31T00:13:49;9.13;;;4.90;;
20080;SDS011;10200;49.232;9.222;2022-10-31T00:16:23;9.43;;;5.00;;
20080;SDS011;10200;49.232;9.222;2022-10-31T00:18:50;9.80;;;4.70;;
20080;SDS011;10200;49.232;9.222;2022-10-31T00:21:24;9.60;;;4.83;;
20080;SDS011;10200;49.232;9.222;2022-10-31T00:23:49;16.40;;;5.67;;
20080;SDS011;10200;49.232;9.222;2022-10-31T00:26:15;11.20;;;4.83;;
20080;SDS011;10200;49.232;9.222;2022-10-31T00:28:42;12.53;;;5.50;;
20080;SDS011;10200;49.232;9.222;2022-10-31T00:31:08;13.47;;;5.30;;
20080;SDS011;10200;49.232;9.222;2022-10-31T00:33:35;7.83;;;4.47;;
20080;SDS011;10200;49.232;9.222;2022-10-31T00:36:02;9.73;;;5.20;;
20080;SDS011;10200;49.232;9.222;2022-10-31T00:38:29;13.40;;;5.37;;
20080;SDS011;10200;49.232;9.222;2022-10-31T00:40:55;15.90;;;7.00;;
20080;SDS011;10200;49.232;9.222;2022-10-31T00:43:21;14.37;;;6.17;;
20080;SDS011;10200;49.232;9.222;2022-10-31T00:45:46;10.50;;;5.30;;
20080;SDS011;10200;49.232;9.222;2022-10-31T00:48:12;8.60;;;5.40;;
20080;SDS011;10200;49.232;9.222;2022-10-31T00:50:38;8.63;;;4.83;;
20080;SDS011;10200;49.232;9.222;2022-10-31T00:53:04;9.37;;;5.87;;
20080;SDS011;10200;49.232;9.222;2022-10-31T00:55:30;10.27;;;5.07;;
20080;SDS011;10200;49.232;9.222;2022-10-31T00:57:55;7.77;;;5.27;;
20080;SDS011;10200;49.232;9.222;2022-10-31T01:00:21;11.97;;;5.80;;
20080;SDS011;10200;49.232;9.222;2022-10-31T01:02:46;11.60;;;6.23;;
20080;SDS011;10200;49.232;9.222;2022-10-31T01:05:12;10.73;;;5.77;;
20080;SDS011;10200;49.232;9.222;2022-10-31T01:07:38;11.03;;;5.03;;
20080;SDS011;10200;49.232;9.222;2022-10-31T01:10:05;9.17;;;5.13;;
20080;SDS011;10200;49.232;9.222;2022-10-31T01:12:41;10.53;;;5.03;;
20080;SDS011;10200;49.232;9.222;2022-10-31T01:15:09;15.17;;;5.20;;
20080;SDS011;10200;49.232;9.222;2022-10-31T01:17:37;10.53;;;4.20;;
20080;SDS011;10200;49.232;9.222;2022-10-31T01:20:03;11.23;;;4.00;;
20080;SDS011;10200;49.232;9.222;2022-10-31T01:22:30;8.27;;;4.50;;
20080;SDS011;10200;49.232;9.222;2022-10-31T01:24:56;6.97;;;4.20;;
20080;SDS011;10200;49.232;9.222;2022-10-31T01:27:21;6.97;;;4.20;;
20080;SDS011;10200;49.232;9.222;2022-10-31T01:29:47;8.43;;;4.43;;
20080;SDS011;10200;49.232;9.222;2022-10-31T01:32:13;8.37;;;4.47;;
20080;SDS011;10200;49.232;9.222;2022-10-31T01:34:38;9.93;;;4.57;;
20080;SDS011;10200;49.232;9.222;2022-10-31T01:37:04;8.13;;;4.43;;
20080;SDS011;10200;49.232;9.222;2022-10-31T01:39:29;7.50;;;4.93;;
20080;SDS011;10200;49.232;9.222;2022-10-31T01:41:55;8.63;;;4.20;;
20080;SDS011;10200;49.232;9.222;2022-10-31T01:46:54;10.93;;;5.00;;
20080;SDS011;10200;49.232;9.222;2022-10-31T01:49:31;11.07;;;5.20;;
20080;SDS011;10200;49.232;9.222;2022-10-31T01:54:35;7.93;;;4.50;;
20080;SDS011;10200;49.232;9.222;2022-10-31T01:57:03;11.17;;;5.03;;
20080;SDS011;10200;49.232;9.222;2022-10-31T01:59:32;10.30;;;4.67;;
20080;SDS011;10200;49.232;9.222;2022-10-31T02:02:01;15.27;;;5.53;;
20080;SDS011;10200;49.232;9.222;2022-10-31T02:04:26;15.03;;;5.60;;
20080;SDS011;10200;49.232;9.222;2022-10-31T02:06:54;15.43;;;6.10;;
20080;SDS011;10200;49.232;9.222;2022-10-31T02:09:27;10.33;;;5.33;;
20080;SDS011;10200;49.232;9.222;2022-10-31T02:11:56;11.00;;;5.57;;
20080;SDS011;10200;49.232;9.222;2022-10-31T02:14:24;12.50;;;5.73;;
20080;SDS011;10200;49.232;9.222;2022-10-31T02:16:52;12.33;;;5.60;;
20080;SDS011;10200;49.232;9.222;2022-10-31T02:19:21;14.93;;;6.63;;
20080;SDS011;10200;49.232;9.222;2022-10-31T02:22:07;10.90;;;5.00;;
20080;SDS011;10200;49.232;9.222;2022-10-31T02:41:29;5.40;;;3.70;;
20080;SDS011;10200;49.232;9.222;2022-10-31T02:44:28;6.70;;;3.77;;
20080;SDS011;10200;49.232;9.222;2022-10-31T02:47:04;5.83;;;3.80;;
20080;SDS011;10200;49.232;9.222;2022-10-31T02:49:33;8.50;;;3.87;;
20080;SDS011;10200;49.232;9.222;2022-10-31T02:52:14;9.60;;;4.07;;
20080;SDS011;10200;49.232;9.222;2022-10-31T02:54:51;8.00;;;4.23;;
20080;SDS011;10200;49.232;9.222;2022-10-31T02:57:18;10.37;;;4.60;;
20080;SDS011;10200;49.232;9.222;2022-10-31T02:59:51;7.13;;;3.27;;
20080;SDS011;10200;49.232;9.222;2022-10-31T03:02:33;4.63;;;3.47;;
20080;SDS011;10200;49.232;9.222;2022-10-31T03:10:55;7.43;;;4.03;;
20080;SDS011;10200;49.232;9.222;2022-10-31T03:18:54;4.80;;;3.53;;
20080;SDS011;10200;49.232;9.222;2022-10-31T03:21:23;4.23;;;3.37;;
20080;SDS011;10200;49.232;9.222;2022-10-31T03:23:55;4.97;;;3.50;;
20080;SDS011;10200;49.232;9.222;2022-10-31T03:26:21;3.43;;;2.70;;
20080;SDS011;10200;49.232;9.222;2022-10-31T03:28:51;5.67;;;3.33;;
20080;SDS011;10200;49.232;9.222;2022-10-31T03:31:28;6.03;;;3.37;;
20080;SDS011;10200;49.232;9.222;2022-10-31T03:33:57;4.13;;;3.10;;
20080;SDS011;10200;49.232;9.222;2022-10-31T03:36:25;3.53;;;3.13;;
20080;SDS011;10200;49.232;9.222;2022-10-31T03:38:54;5.00;;;3.27;;
20080;SDS011;10200;49.232;9.222;2022-10-31T03:41:23;2.87;;;2.53;;
20080;SDS011;10200;49.232;9.222;2022-10-31T03:44:04;3.70;;;3.20;;
20080;SDS011;10200;49.232;9.222;2022-10-31T03:46:35;4.80;;;2.40;;
20080;SDS011;10200;49.232;9.222;2022-10-31T03:49:01;5.83;;;3.43;;
20080;SDS011;10200;49.232;9.222;2022-10-31T03:51:31;3.97;;;2.67;;
20080;SDS011;10200;49.232;9.222;2022-10-31T03:54:21;3.23;;;2.93;;
20080;SDS011;10200;49.232;9.222;2022-10-31T03:56:53;9.20;;;3.33;;
20080;SDS011;10200;49.232;9.222;2022-10-31T04:02:27;6.43;;;2.70;;
20080;SDS011;10200;49.232;9.222;2022-10-31T04:04:56;3.73;;;2.47;;
20080;SDS011;10200;49.232;9.222;2022-10-31T04:07:22;4.07;;;2.87;;
20080;SDS011;10200;49.232;9.222;2022-10-31T04:09:53;4.47;;;3.27;;
20080;SDS011;10200;49.232;9.222;2022-10-31T04:12:19;3.93;;;2.80;;
20080;SDS011;10200;49.232;9.222;2022-10-31T04:14:48;5.47;;;2.77;;
20080;SDS011;10200;49.232;9.222;2022-10-31T04:17:16;3.90;;;3.00;;
20080;SDS011;10200;49.232;9.222;2022-10-31T04:19:44;5.17;;;2.43;;
20080;SDS011;10200;49.232;9.222;2022-10-31T04:22:09;2.60;;;2.30;;
20080;SDS011;10200;49.232;9.222;2022-10-31T04:24:36;3.60;;;2.70;;
20080;SDS011;10200;49.232;9.222;2022-10-31T04:27:04;6.93;;;2.63;;
20080;SDS011;10200;49.232;9.222;2022-10-31T04:29:29;6.13;;;2.83;;
20080;SDS011;10200;49.232;9.222;2022-10-31T04:31:55;3.47;;;2.83;;
20080;SDS011;10200;49.232;9.222;2022-10-31T04:34:21;2.93;;;2.40;;
20080;SDS011;10200;49.232;9.222;2022-10-31T04:36:46;3.87;;;2.93;;
20080;SDS011;10200;49.232;9.222;2022-10-31T04:39:12;3.97;;;2.93;;
20080;SDS011;10200;49.232;9.222;2022-10-31T04:41:37;4.13;;;2.97;;
20080;SDS011;10200;49.232;9.222;2022-10-31T04:44:03;5.60;;;2.87;;
20080;SDS011;10200;49.232;9.222;2022-10-31T04:46:28;3.30;;;3.00;;
20080;SDS011;10200;49.232;9.222;2022-10-31T04:48:54;3.83;;;2.80;;
20080;SDS011;10200;49.232;9.222;2022-10-31T04:51:20;5.40;;;3.47;;
20080;SDS011;10200;49.232;9.222;2022-10-31T04:53:45;5.90;;;2.67;;
20080;SDS011;10200;49.232;9.222;2022-10-31T04:56:11;3.67;;;2.90;;
20080;SDS011;10200;49.232;9.222;2022-10-31T04:58:37;3.27;;;2.53;;
20080;SDS011;10200;49.232;9.222;2022-10-31T05:01:02;4.63;;;2.80;;
20080;SDS011;10200;49.232;9.222;2022-10-31T05:03:28;4.07;;;2.17;;
20080;SDS011;10200;49.232;9.222;2022-10-31T05:05:53;3.87;;;2.57;;
20080;SDS011;10200;49.232;9.222;2022-10-31T05:08:19;2.90;;;2.57;;
20080;SDS011;10200;49.232;9.222;2022-10-31T05:10:44;4.80;;;2.63;;
20080;SDS011;10200;49.232;9.222;2022-10-31T05:13:10;4.90;;;2.57;;
20080;SDS011;10200;49.232;9.222;2022-10-31T05:15:36;3.67;;;2.70;;
20080;SDS011;10200;49.232;9.222;2022-10-31T05:18:01;3.83;;;2.83;;
20080;SDS011;10200;49.232;9.222;2022-10-31T05:20:27;3.10;;;2.57;;
20080;SDS011;10200;49.232;9.222;2022-10-31T05:22:54;3.27;;;2.73;;
20080;SDS011;10200;49.232;9.222;2022-10-31T05:25:22;5.90;;;2.80;;
20080;SDS011;10200;49.232;9.222;2022-10-31T05:27:50;9.83;;;2.20;;
20080;SDS011;10200;49.232;9.222;2022-10-31T05:30:21;2.37;;;2.17;;
20080;SDS011;10200;49.232;9.222;2022-10-31T05:32:49;3.30;;;2.50;;
20080;SDS011;10200;49.232;9.222;2022-10-31T05:35:16;11.50;;;3.47;;
20080;SDS011;10200;49.232;9.222;2022-10-31T05:37:47;2.90;;;2.40;;
20080;SDS011;10200;49.232;9.222;2022-10-31T05:40:13;3.30;;;2.60;;
20080;SDS011;10200;49.232;9.222;2022-10-31T05:42:40;3.77;;;2.57;;
20080;SDS011;10200;49.232;9.222;2022-10-31T05:45:11;4.23;;;2.20;;
20080;SDS011;10200;49.232;9.222;2022-10-31T05:47:39;1.87;;;1.70;;
20080;SDS011;10200;49.232;9.222;2022-10-31T05:50:05;3.47;;;2.43;;
20080;SDS011;10200;49.232;9.222;2022-10-31T05:52:31;4.20;;;2.20;;
20080;SDS011;10200;49.232;9.222;2022-10-31T05:54:57;4.70;;;2.10;;
20080;SDS011;10200;49.232;9.222;2022-10-31T05:57:23;2.30;;;2.10;;
20080;SDS011;10200;49.232;9.222;2022-10-31T05:59:49;5.57;;;2.17;;
20080;SDS011;10200;49.232;9.222;2022-10-31T06:02:17;2.43;;;2.10;;
20080;SDS011;10200;49.232;9.222;2022-10-31T06:04:43;2.87;;;2.47;;
20080;SDS011;10200;49.232;9.222;2022-10-31T06:07:09;2.57;;;2.23;;
20080;SDS011;10200;49.232;9.222;2022-10-31T06:09:34;2.77;;;2.57;;
20080;SDS011;10200;49.232;9.222;2022-10-31T06:12:00;2.60;;;2.40;;
20080;SDS011;10200;49.232;9.222;2022-10-31T06:14:25;3.07;;;2.40;;
20080;SDS011;10200;49.232;9.222;2022-10-31T06:16:51;6.13;;;3.23;;
20080;SDS011;10200;49.232;9.222;2022-10-31T06:19:17;2.87;;;2.37;;
20080;SDS011;10200;49.232;9.222;2022-10-31T06:21:42;5.10;;;2.43;;
20080;SDS011;10200;49.232;9.222;2022-10-31T06:24:08;6.73;;;3.07;;
20080;SDS011;10200;49.232;9.222;2022-10-31T06:26:33;5.00;;;3.27;;
20080;SDS011;10200;49.232;9.222;2022-10-31T06:28:59;6.57;;;3.50;;
20080;SDS011;10200;49.232;9.222;2022-10-31T06:31:24;3.57;;;3.03;;
20080;SDS011;10200;49.232;9.222;2022-10-31T06:33:50;5.47;;;2.90;;
20080;SDS011;10200;49.232;9.222;2022-10-31T06:36:15;4.03;;;2.90;;
20080;SDS011;10200;49.232;9.222;2022-10-31T06:38:41;3.57;;;3.27;;
20080;SDS011;10200;49.232;9.222;2022-10-31T06:41:06;5.97;;;2.60;;
20080;SDS011;10200;49.232;9.222;2022-10-31T06:43:32;2.97;;;2.70;;
20080;SDS011;10200;49.232;9.222;2022-10-31T06:46:01;10.50;;;3.27;;
20080;SDS011;10200;49.232;9.222;2022-10-31T06:48:28;4.20;;;2.30;;
20080;SDS011;10200;49.232;9.222;2022-10-31T06:50:56;3.73;;;2.47;;
20080;SDS011;10200;49.232;9.222;2022-10-31T06:53:26;2.47;;;2.03;;
20080;SDS011;10200;49.232;9.222;2022-10-31T06:55:54;2.00;;;1.80;;
20080;SDS011;10200;49.232;9.222;2022-10-31T06:58:21;4.30;;;2.40;;
20080;SDS011;10200;49.232;9.222;2022-10-31T07:00:46;5.83;;;2.77;;
20080;SDS011;10200;49.232;9.222;2022-10-31T07:03:12;3.07;;;2.40;;
20080;SDS011;10200;49.232;9.222;2022-10-31T07:05:40;3.13;;;2.67;;
20080;SDS011;10200;49.232;9.222;2022-10-31T07:08:07;3.43;;;2.17;;
20080;SDS011;10200;49.232;9.222;2022-10-31T07:10:34;3.33;;;2.53;;
20080;SDS011;10200;49.232;9.222;2022-10-31T07:13:02;3.10;;;2.57;;
20080;SDS011;10200;49.232;9.222;2022-10-31T07:15:29;2.67;;;2.37;;
20080;SDS011;10200;49.232;9.222;2022-10-31T07:18:05;4.03;;;2.80;;
20080;SDS011;10200;49.232;9.222;2022-10-31T07:20:33;3.83;;;2.70;;
20080;SDS011;10200;49.232;9.222;2022-10-31T07:22:59;8.47;;;3.17;;
20080;SDS011;10200;49.232;9.222;2022-10-31T07:25:25;6.83;;;3.33;;
20080;SDS011;10200;49.232;9.222;2022-10-31T07:27:51;3.07;;;2.70;;
20080;SDS011;10200;49.232;9.222;2022-10-31T07:30:16;6.77;;;2.63;;
20080;SDS011;10200;49.232;9.222;2022-10-31T07:35:10;5.90;;;2.57;;
20080;SDS011;10200;49.232;9.222;2022-10-31T07:37:37;3.67;;;3.13;;
20080;SDS011;10200;49.232;9.222;2022-10-31T07:40:04;4.83;;;3.20;;
20080;SDS011;10200;49.232;9.222;2022-10-31T07:42:37;5.57;;;2.90;;
20080;SDS011;10200;49.232;9.222;2022-10-31T07:45:09;3.87;;;2.90;;
20080;SDS011;10200;49.232;9.222;2022-10-31T07:50:12;4.17;;;2.37;;
20080;SDS011;10200;49.232;9.222;2022-10-31T07:52:39;3.07;;;2.60;;
20080;SDS011;10200;49.232;9.222;2022-10-31T07:55:05;3.93;;;2.60;;
20080;SDS011;10200;49.232;9.222;2022-10-31T07:57:32;5.40;;;2.70;;
20080;SDS011;10200;49.232;9.222;2022-10-31T07:59:58;4.50;;;2.97;;
20080;SDS011;10200;49.232;9.222;2022-10-31T08:02:23;6.43;;;3.20;;
20080;SDS011;10200;49.232;9.222;2022-10-31T08:04:49;4.20;;;3.23;;
20080;SDS011;10200;49.232;9.222;2022-10-31T08:07:15;5.00;;;2.70;;
20080;SDS011;10200;49.232;9.222;2022-10-31T08:09:41;8.60;;;3.00;;
20080;SDS011;10200;49.232;9.222;2022-10-31T08:12:07;5.93;;;3.13;;
20080;SDS011;10200;49.232;9.222;2022-10-31T08:14:32;4.37;;;2.60;;
20080;SDS011;10200;49.232;9.222;2022-10-31T08:16:58;4.37;;;2.83;;
20080;SDS011;10200;49.232;9.222;2022-10-31T08:19:23;5.77;;;2.57;;
20080;SDS011;10200;49.232;9.222;2022-10-31T08:21:52;5.70;;;2.57;;
20080;SDS011;10200;49.232;9.222;2022-10-31T08:24:20;3.03;;;2.17;;
20080;SDS011;10200;49.232;9.222;2022-10-31T08:26:46;5.33;;;3.03;;
20080;SDS011;10200;49.232;9.222;2022-10-31T08:29:11;9.47;;;3.10;;
20080;SDS011;10200;49.232;9.222;2022-10-31T08:31:37;6.47;;;3.17;;
20080;SDS011;10200;49.232;9.222;2022-10-31T08:34:03;5.60;;;3.40;;
20080;SDS011;10200;49.232;9.222;2022-10-31T08:36:29;6.03;;;2.73;;
20080;SDS011;10200;49.232;9.222;2022-10-31T08:38:54;3.73;;;2.73;;
20080;SDS011;10200;49.232;9.222;2022-10-31T08:41:20;4.73;;;2.73;;
20080;SDS011;10200;49.232;9.222;2022-10-31T08:43:46;5.13;;;3.00;;
20080;SDS011;10200;49.232;9.222;2022-10-31T08:46:12;4.23;;;2.77;;
20080;SDS011;10200;49.232;9.222;2022-10-31T08:48:37;5.13;;;2.83;;
20080;SDS011;10200;49.232;9.222;2022-10-31T08:51:03;9.63;;;3.57;;
20080;SDS011;10200;49.232;9.222;2022-10-31T08:53:29;4.10;;;3.03;;
20080;SDS011;10200;49.232;9.222;2022-10-31T08:55:55;5.73;;;2.97;;
20080;SDS011;10200;49.232;9.222;2022-10-31T08:58:21;4.97;;;3.00;;
20080;SDS011;10200;49.232;9.222;2022-10-31T09:00:49;4.73;;;2.97;;
20080;SDS011;10200;49.232;9.222;2022-10-31T09:03:17;6.57;;;3.47;;
20080;SDS011;10200;49.232;9.222;2022-10-31T09:05:44;5.23;;;3.23;;
20080;SDS011;10200;49.232;9.222;2022-10-31T09:08:10;10.10;;;3.57;;
20080;SDS011;10200;49.232;9.222;2022-10-31T09:10:36;5.33;;;3.40;;
20080;SDS011;10200;49.232;9.222;2022-10-31T09:13:03;3.57;;;3.00;;
20080;SDS011;10200;49.232;9.222;2022-10-31T09:15:34;4.17;;;3.27;;
20080;SDS011;10200;49.232;9.222;2022-10-31T09:18:03;8.93;;;3.27;;
20080;SDS011;10200;49.232;9.222;2022-10-31T09:20:29;7.13;;;3.53;;
20080;SDS011;10200;49.232;9.222;2022-10-31T09:23:00;6.80;;;3.23;;
20080;SDS011;10200;49.232;9.222;2022-10-31T09:25:30;7.57;;;3.47;;
20080;SDS011;10200;49.232;9.222;2022-10-31T09:27:58;8.63;;;4.00;;
20080;SDS011;10200;49.232;9.222;2022-10-31T09:30:26;6.87;;;3.63;;
20080;SDS011;10200;49.232;9.222;2022-10-31T09:32:56;4.97;;;3.27;;
20080;SDS011;10200;49.232;9.222;2022-10-31T09:35:23;5.07;;;3.40;;
20080;SDS011;10200;49.232;9.222;2022-10-31T09:37:58;7.50;;;3.80;;
20080;SDS011;10200;49.232;9.222;2022-10-31T09:40:47;4.93;;;3.43;;
20080;SDS011;10200;49.232;9.222;2022-10-31T09:45:53;6.40;;;3.63;;
20080;SDS011;10200;49.232;9.222;2022-10-31T09:48:27;8.07;;;3.70;;
20080;SDS011;10200;49.232;9.222;2022-10-31T09:51:17;7.47;;;3.93;;
20080;SDS011;10200;49.232;9.222;2022-10-31T09:53:53;5.20;;;3.77;;
20080;SDS011;10200;49.232;9.222;2022-10-31T09:56:42;9.27;;;4.43;;
20080;SDS011;10200;49.232;9.222;2022-10-31T09:59:11;7.77;;;3.77;;
20080;SDS011;10200;49.232;9.222;2022-10-31T10:01:51;9.80;;;4.40;;
20080;SDS011;10200;49.232;9.222;2022-10-31T10:07:09;6.30;;;4.17;;
20080;SDS011;10200;49.232;9.222;2022-10-31T10:09:44;5.53;;;3.67;;
20080;SDS011;10200;49.232;9.222;2022-10-31T10:15:13;10.90;;;4.57;;
20080;SDS011;10200;49.232;9.222;2022-10-31T10:18:12;7.20;;;4.67;;
20080;SDS011;10200;49.232;9.222;2022-10-31T10:20:56;11.50;;;4.17;;
20080;SDS011;10200;49.232;9.222;2022-10-31T10:26:20;10.07;;;5.23;;
20080;SDS011;10200;49.232;9.222;2022-10-31T10:28:49;6.43;;;4.57;;
20080;SDS011;10200;49.232;9.222;2022-10-31T10:31:39;9.00;;;3.97;;
20080;SDS011;10200;49.232;9.222;2022-10-31T10:34:24;10.23;;;4.47;;
20080;SDS011;10200;49.232;9.222;2022-10-31T10:36:58;7.70;;;4.07;;
20080;SDS011;10200;49.232;9.222;2022-10-31T10:39:33;7.00;;;4.83;;
20080;SDS011;10200;49.232;9.222;2022-10-31T10:42:14;6.73;;;4.20;;
20080;SDS011;10200;49.232;9.222;2022-10-31T10:44:59;9.87;;;4.47;;
20080;SDS011;10200;49.232;9.222;2022-10-31T10:47:57;7.60;;;4.55;;
20080;SDS011;10200;49.232;9.222;2022-10-31T10:50:34;9.87;;;5.13;;
20080;SDS011;10200;49.232;9.222;2022-10-31T10:58:29;9.57;;;6.15;;
20080;SDS011;10200;49.232;9.222;2022-10-31T11:00:55;7.60;;;4.80;;
20080;SDS011;10200;49.232;9.222;2022-10-31T11:03:21;8.85;;;5.07;;
20080;SDS011;10200;49.232;9.222;2022-10-31T11:05:47;9.77;;;5.20;;
20080;SDS011;10200;49.232;9.222;2022-10-31T11:08:27;10.70;;;5.22;;
20080;SDS011;10200;49.232;9.222;2022-10-31T11:11:01;12.10;;;5.53;;
20080;SDS011;10200;49.232;9.222;2022-10-31T11:13:47;13.98;;;5.20;;
20080;SDS011;10200;49.232;9.222;2022-10-31T11:16:26;8.80;;;5.50;;
20080;SDS011;10200;49.232;9.222;2022-10-31T11:19:08;10.75;;;5.38;;
20080;SDS011;10200;49.232;9.222;2022-10-31T11:21:37;6.72;;;4.32;;
20080;SDS011;10200;49.232;9.222;2022-10-31T11:26:34;7.93;;;4.03;;
20080;SDS011;10200;49.232;9.222;2022-10-31T11:29:03;8.57;;;5.28;;
20080;SDS011;10200;49.232;9.222;2022-10-31T11:31:30;9.65;;;5.15;;
20080;SDS011;10200;49.232;9.222;2022-10-31T11:33:59;7.45;;;4.45;;
20080;SDS011;10200;49.232;9.222;2022-10-31T11:36:27;9.10;;;5.20;;
20080;SDS011;10200;49.232;9.222;2022-10-31T11:39:03;8.30;;;5.00;;
20080;SDS011;10200;49.232;9.222;2022-10-31T11:41:34;7.55;;;4.88;;
20080;SDS011;10200;49.232;9.222;2022-10-31T11:46:39;12.55;;;5.82;;
20080;SDS011;10200;49.232;9.222;2022-10-31T11:49:28;8.30;;;4.70;;
20080;SDS011;10200;49.232;9.222;2022-10-31T11:52:29;10.40;;;5.80;;
20080;SDS011;10200;49.232;9.222;2022-10-31T12:00:20;9.70;;;5.93;;
20080;SDS011;10200;49.232;9.222;2022-10-31T12:03:01;12.52;;;5.72;;
20080;SDS011;10200;49.232;9.222;2022-10-31T12:05:49;10.32;;;4.68;;
20080;SDS011;10200;49.232;9.222;2022-10-31T12:08:44;8.13;;;5.03;;
20080;SDS011;10200;49.232;9.222;2022-10-31T12:14:07;5.63;;;4.13;;
20080;SDS011;10200;49.232;9.222;2022-10-31T12:24:38;10.07;;;5.22;;
20080;SDS011;10200;49.232;9.222;2022-10-31T12:33:15;11.45;;;5.55;;
20080;SDS011;10200;49.232;9.222;2022-10-31T12:35:54;7.75;;;4.97;;
20080;SDS011;10200;49.232;9.222;2022-10-31T12:38:37;7.95;;;4.85;;
20080;SDS011;10200;49.232;9.222;2022-10-31T12:41:29;9.02;;;5.15;;
20080;SDS011;10200;49.232;9.222;2022-10-31T12:45:21;9.93;;;5.05;;
20080;SDS011;10200;49.232;9.222;2022-10-31T12:52:56;11.25;;;5.68;;
20080;SDS011;10200;49.232;9.222;2022-10-31T12:58:24;10.55;;;5.95;;
20080;SDS011;10200;49.232;9.222;2022-10-31T13:00:58;8.65;;;4.50;;
20080;SDS011;10200;49.232;9.222;2022-10-31T13:03:38;8.07;;;5.00;;
20080;SDS011;10200;49.232;9.222;2022-10-31T13:06:09;10.35;;;4.78;;
20080;SDS011;10200;49.232;9.222;2022-10-31T13:08:44;5.50;;;3.83;;
20080;SDS011;10200;49.232;9.222;2022-10-31T13:11:28;8.45;;;5.10;;
20080;SDS011;10200;49.232;9.222;2022-10-31T13:16:59;9.45;;;4.72;;
20080;SDS011;10200;49.232;9.222;2022-10-31T13:19:36;7.13;;;4.03;;
20080;SDS011;10200;49.232;9.222;2022-10-31T13:27:41;6.40;;;4.13;;
20080;SDS011;10200;49.232;9.222;2022-10-31T13:30:23;13.85;;;6.03;;
20080;SDS011;10200;49.232;9.222;2022-10-31T13:32:54;8.05;;;4.78;;
20080;SDS011;10200;49.232;9.222;2022-10-31T13:38:17;7.00;;;4.47;;
20080;SDS011;10200;49.232;9.222;2022-10-31T13:40:46;8.60;;;4.47;;
20080;SDS011;10200;49.232;9.222;2022-10-31T13:45:54;10.55;;;5.35;;
20080;SDS011;10200;49.232;9.222;2022-10-31T13:50:57;7.97;;;4.80;;
20080;SDS011;10200;49.232;9.222;2022-10-31T13:53:42;6.35;;;4.53;;
20080;SDS011;10200;49.232;9.222;2022-10-31T13:56:14;10.23;;;4.43;;
20080;SDS011;10200;49.232;9.222;2022-10-31T13:58:57;7.65;;;4.28;;
20080;SDS011;10200;49.232;9.222;2022-10-31T14:01:28;8.95;;;4.63;;
20080;SDS011;10200;49.232;9.222;2022-10-31T14:04:05;8.70;;;5.60;;
20080;SDS011;10200;49.232;9.222;2022-10-31T14:06:37;9.88;;;5.15;;
20080;SDS011;10200;49.232;9.222;2022-10-31T14:09:16;9.00;;;4.82;;
20080;SDS011;10200;49.232;9.222;2022-10-31T14:11:46;8.13;;;4.13;;
20080;SDS011;10200;49.232;9.222;2022-10-31T14:14:13;6.47;;;3.85;;
20080;SDS011;10200;49.232;9.222;2022-10-31T14:16:40;8.75;;;4.78;;
20080;SDS011;10200;49.232;9.222;2022-10-31T14:19:16;4.88;;;3.58;;
20080;SDS011;10200;49.232;9.222;2022-10-31T14:21:45;6.47;;;3.88;;
20080;SDS011;10200;49.232;9.222;2022-10-31T14:26:58;6.15;;;3.22;;
20080;SDS011;10200;49.232;9.222;2022-10-31T14:29:45;3.08;;;2.63;;
20080;SDS011;10200;49.232;9.222;2022-10-31T14:34:39;5.72;;;3.50;;
20080;SDS011;10200;49.232;9.222;2022-10-31T14:45:43;8.93;;;4.10;;
20080;SDS011;10200;49.232;9.222;2022-10-31T14:50:52;17.70;;;6.43;;
20080;SDS011;10200;49.232;9.222;2022-10-31T14:53:26;11.48;;;7.75;;
20080;SDS011;10200;49.232;9.222;2022-10-31T14:55:58;6.07;;;4.25;;
20080;SDS011;10200;49.232;9.222;2022-10-31T14:58:45;4.07;;;3.20;;
20080;SDS011;10200;49.232;9.222;2022-10-31T15:01:19;9.27;;;3.75;;
20080;SDS011;10200;49.232;9.222;2022-10-31T15:03:49;5.40;;;3.03;;
20080;SDS011;10200;49.232;9.222;2022-10-31T15:06:17;5.75;;;3.25;;
20080;SDS011;10200;49.232;9.222;2022-10-31T15:11:20;8.27;;;3.45;;
20080;SDS011;10200;49.232;9.222;2022-10-31T15:13:54;5.43;;;2.75;;
20080;SDS011;10200;49.232;9.222;2022-10-31T15:16:28;4.78;;;3.53;;
20080;SDS011;10200;49.232;9.222;2022-10-31T15:18:57;6.28;;;3.35;;
20080;SDS011;10200;49.232;9.222;2022-10-31T15:21:27;5.55;;;3.15;;
20080;SDS011;10200;49.232;9.222;2022-10-31T15:23:54;7.13;;;3.55;;
20080;SDS011;10200;49.232;9.222;2022-10-31T15:26:22;6.07;;;3.40;;
20080;SDS011;10200;49.232;9.222;2022-10-31T15:29:02;7.18;;;4.28;;
20080;SDS011;10200;49.232;9.222;2022-10-31T15:31:38;12.52;;;3.85;;
20080;SDS011;10200;49.232;9.222;2022-10-31T15:34:16;5.60;;;3.17;;
20080;SDS011;10200;49.232;9.222;2022-10-31T15:36:47;4.85;;;3.03;;
20080;SDS011;10200;49.232;9.222;2022-10-31T15:39:15;4.57;;;2.55;;
20080;SDS011;10200;49.232;9.222;2022-10-31T15:41:51;5.32;;;2.80;;
20080;SDS011;10200;49.232;9.222;2022-10-31T15:46:58;4.30;;;3.03;;
20080;SDS011;10200;49.232;9.222;2022-10-31T15:49:38;6.45;;;3.53;;
20080;SDS011;10200;49.232;9.222;2022-10-31T15:55:00;3.13;;;2.75;;
20080;SDS011;10200;49.232;9.222;2022-10-31T15:57:47;7.03;;;3.83;;
20080;SDS011;10200;49.232;9.222;2022-10-31T16:05:55;6.07;;;3.42;;
20080;SDS011;10200;49.232;9.222;2022-10-31T16:10:50;9.45;;;3.83;;
20080;SDS011;10200;49.232;9.222;2022-10-31T16:13:17;5.97;;;4.45;;
20080;SDS011;10200;49.232;9.222;2022-10-31T16:15:49;5.47;;;3.35;;
20080;SDS011;10200;49.232;9.222;2022-10-31T16:18:19;8.63;;;4.80;;
20080;SDS011;10200;49.232;9.222;2022-10-31T16:20:48;4.07;;;3.58;;
20080;SDS011;10200;49.232;9.222;2022-10-31T16:23:17;9.40;;;4.00;;
20080;SDS011;10200;49.232;9.222;2022-10-31T16:25:44;6.82;;;4.07;;
20080;SDS011;10200;49.232;9.222;2022-10-31T16:28:21;6.43;;;3.90;;
20080;SDS011;10200;49.232;9.222;2022-10-31T16:30:50;8.53;;;3.53;;
20080;SDS011;10200;49.232;9.222;2022-10-31T16:33:29;6.77;;;3.60;;
20080;SDS011;10200;49.232;9.222;2022-10-31T16:35:58;4.90;;;3.20;;
20080;SDS011;10200;49.232;9.222;2022-10-31T16:38:25;8.23;;;3.47;;
20080;SDS011;10200;49.232;9.222;2022-10-31T16:40:51;3.50;;;2.80;;
20080;SDS011;10200;49.232;9.222;2022-10-31T16:43:18;6.90;;;3.23;;
20080;SDS011;10200;49.232;9.222;2022-10-31T16:45:46;6.77;;;3.60;;
20080;SDS011;10200;49.232;9.222;2022-10-31T16:48:14;6.03;;;4.53;;
20080;SDS011;10200;49.232;9.222;2022-10-31T16:50:48;9.17;;;5.17;;
20080;SDS011;10200;49.232;9.222;2022-10-31T16:53:15;8.37;;;5.33;;
20080;SDS011;10200;49.232;9.222;2022-10-31T16:55:46;9.60;;;6.40;;
20080;SDS011;10200;49.232;9.222;2022-10-31T16:58:27;10.57;;;7.73;;
20080;SDS011;10200;49.232;9.222;2022-10-31T17:00:54;10.27;;;7.40;;
20080;SDS011;10200;49.232;9.222;2022-10-31T17:03:21;13.47;;;7.30;;
20080;SDS011;10200;49.232;9.222;2022-10-31T17:05:47;21.97;;;12.57;;
20080;SDS011;10200;49.232;9.222;2022-10-31T17:08:12;18.33;;;10.97;;
20080;SDS011;10200;49.232;9.222;2022-10-31T17:10:38;14.13;;;9.13;;
20080;SDS011;10200;49.232;9.222;2022-10-31T17:13:06;11.83;;;8.00;;
20080;SDS011;10200;49.232;9.222;2022-10-31T17:15:42;10.63;;;7.27;;
20080;SDS011;10200;49.232;9.222;2022-10-31T17:18:14;11.93;;;7.53;;
20080;SDS011;10200;49.232;9.222;2022-10-31T17:20:40;11.87;;;7.03;;
20080;SDS011;10200;49.232;9.222;2022-10-31T17:23:08;13.10;;;6.30;;
20080;SDS011;10200;49.232;9.222;2022-10-31T17:25:35;12.50;;;6.47;;
20080;SDS011;10200;49.232;9.222;2022-10-31T17:28:00;10.60;;;6.03;;